Time;durP1;ratioP1;P1;durP2;ratioP2;P2;SDS_P1;SDS_P2;PMS_P1;PMS_P2;Temp;Humidity;BMP_temperature;BMP_pressure;BME280_temperature;BME280_humidity;BME280_pressure;Samples;Min_cycle;Max_cycle;Signal;HPM_P1;HPM_P2
2021/12/03 00:01:14;;;;;;;8.25;5.55;;;;;;;-1.92;91.09;101021.72;4967534;28;20132;-81
2021/12/03 00:03:40;;;;;;;13.00;5.28;;;;;;;-1.90;90.90;101024.38;5006197;28;20113;-79
2021/12/03 00:06:12;;;;;;;7.85;5.55;;;;;;;-1.88;91.08;101023.63;4973115;28;20518;-79
2021/12/03 00:08:42;;;;;;;8.30;5.60;;;;;;;-1.88;90.38;101026.19;4999781;28;20034;-80
2021/12/03 00:11:11;;;;;;;6.28;5.20;;;;;;;-1.87;90.82;101030.50;4973054;28;20486;-78
2021/12/03 00:13:37;;;;;;;9.38;6.18;;;;;;;-1.84;90.63;101024.59;4987501;28;20041;-79
2021/12/03 00:16:04;;;;;;;9.52;5.85;;;;;;;-1.84;90.42;101022.94;4984432;28;20030;-77
2021/12/03 00:18:33;;;;;;;8.43;5.65;;;;;;;-1.83;90.61;101019.53;5007408;28;20509;-80
2021/12/03 00:21:03;;;;;;;9.70;5.72;;;;;;;-1.85;90.24;101013.47;4989039;28;20133;-77
2021/12/03 00:23:32;;;;;;;13.88;7.38;;;;;;;-1.84;90.39;101027.19;5004522;28;20026;-78
2021/12/03 00:26:00;;;;;;;9.90;6.13;;;;;;;-1.86;90.71;101037.38;5008942;28;20087;-78
2021/12/03 00:28:28;;;;;;;10.30;7.97;;;;;;;-1.83;90.42;101040.09;4985171;28;20038;-77
2021/12/03 00:30:55;;;;;;;13.77;7.68;;;;;;;-1.84;90.60;101028.06;4992710;28;20401;-77
2021/12/03 00:33:21;;;;;;;14.88;8.82;;;;;;;-1.85;90.41;101023.75;4993233;28;20045;-78
2021/12/03 00:35:47;;;;;;;11.23;8.00;;;;;;;-1.84;90.95;101022.94;5006708;28;20033;-78
2021/12/03 00:38:15;;;;;;;13.57;8.43;;;;;;;-1.86;90.92;101023.69;5003890;28;20112;-77
2021/12/03 00:40:41;;;;;;;16.65;9.45;;;;;;;-1.84;90.73;101028.06;4978746;28;20114;-77
2021/12/03 00:43:08;;;;;;;17.98;9.43;;;;;;;-1.84;90.87;101019.47;4987215;28;20122;-79
2021/12/03 00:45:34;;;;;;;12.77;8.80;;;;;;;-1.87;90.75;101027.91;5005373;28;20117;-77
2021/12/03 00:48:02;;;;;;;14.68;9.23;;;;;;;-1.88;90.97;101030.44;4986238;28;20252;-78
2021/12/03 00:50:28;;;;;;;18.95;10.50;;;;;;;-1.83;90.74;101026.38;4990528;28;20161;-78
2021/12/03 00:52:56;;;;;;;20.00;11.05;;;;;;;-1.85;91.18;101028.88;4975618;28;20151;-80
2021/12/03 00:55:24;;;;;;;17.95;10.48;;;;;;;-1.84;90.65;101025.50;4989987;28;20073;-77
2021/12/03 00:57:50;;;;;;;18.13;11.05;;;;;;;-1.84;91.13;101027.19;4989954;28;20038;-76
2021/12/03 01:00:25;;;;;;;16.42;11.82;;;;;;;-1.83;91.29;101032.38;4959602;28;20038;-78
2021/12/03 01:02:53;;;;;;;17.25;10.73;;;;;;;-1.84;91.23;101028.06;4989912;28;20092;-78
2021/12/03 01:05:19;;;;;;;21.63;10.65;;;;;;;-1.82;91.10;101028.13;4984928;28;20022;-77
2021/12/03 01:07:45;;;;;;;14.82;10.43;;;;;;;-1.84;91.30;101030.66;4987397;28;20156;-77
2021/12/03 01:10:12;;;;;;;17.73;10.43;;;;;;;-1.84;91.29;101030.66;4973461;28;20193;-77
2021/12/03 01:12:38;;;;;;;14.43;10.23;;;;;;;-1.83;90.92;101031.50;4990783;28;20030;-78
2021/12/03 01:15:07;;;;;;;11.85;10.25;;;;;;;-1.83;91.25;101042.66;4986287;28;20049;-78
2021/12/03 01:17:37;;;;;;;14.70;9.77;;;;;;;-1.83;91.03;101039.22;4983439;28;20054;-78
2021/12/03 01:20:07;;;;;;;20.33;10.82;;;;;;;-1.82;90.99;101039.28;4989365;28;20026;-78
2021/12/03 01:22:33;;;;;;;15.77;11.55;;;;;;;-1.80;91.26;101037.63;4988872;28;20132;-77
2021/12/03 01:24:59;;;;;;;18.02;12.27;;;;;;;-1.78;91.17;101041.16;4990695;28;20581;-78
2021/12/03 01:27:25;;;;;;;17.90;12.45;;;;;;;-1.76;91.71;101041.22;4990823;28;20038;-78
2021/12/03 01:29:55;;;;;;;17.90;12.98;;;;;;;-1.76;91.63;101034.38;4990733;28;20038;-79
2021/12/03 01:32:21;;;;;;;17.33;13.48;;;;;;;-1.72;91.84;101047.34;4991220;28;20026;-81
2021/12/03 01:34:46;;;;;;;24.90;12.50;;;;;;;-1.74;91.80;101039.59;4957154;28;20391;-80
2021/12/03 01:37:12;;;;;;;20.92;13.55;;;;;;;-1.68;91.73;101046.66;4975434;28;20034;-80
2021/12/03 01:39:38;;;;;;;19.85;14.27;;;;;;;-1.64;91.73;101046.88;4958491;28;20030;-80
2021/12/03 01:42:04;;;;;;;24.45;16.25;;;;;;;-1.57;91.79;101042.84;4985652;28;20041;-81
2021/12/03 01:44:30;;;;;;;30.88;19.70;;;;;;;-1.52;92.14;101041.38;4991118;28;20466;-80
2021/12/03 01:46:55;;;;;;;29.83;18.33;;;;;;;-1.50;92.17;101038.84;4993810;28;20463;-78
2021/12/03 01:49:23;;;;;;;28.55;18.08;;;;;;;-1.48;92.12;101038.09;4984504;28;20076;-77
2021/12/03 01:51:49;;;;;;;28.05;18.40;;;;;;;-1.48;92.17;101038.09;4987122;28;20049;-79
2021/12/03 01:54:15;;;;;;;37.97;19.38;;;;;;;-1.47;91.93;101029.56;5000636;28;20038;-80
2021/12/03 01:56:41;;;;;;;30.05;16.95;;;;;;;-1.47;92.08;101037.25;4974075;28;20030;-78
2021/12/03 01:59:07;;;;;;;30.27;16.35;;;;;;;-1.46;92.03;101036.47;5007992;28;20088;-79
2021/12/03 02:01:35;;;;;;;28.40;19.80;;;;;;;-1.47;91.96;101042.41;5003365;28;20057;-80
2021/12/03 02:04:03;;;;;;;28.58;17.23;;;;;;;-1.46;91.79;101041.59;4970611;28;20084;-76
2021/12/03 02:06:30;;;;;;;25.70;15.57;;;;;;;-1.43;92.15;101038.28;5004625;28;20121;-78
2021/12/03 02:08:58;;;;;;;30.08;16.15;;;;;;;-1.43;92.24;101036.56;5011116;28;20030;-77
2021/12/03 02:11:23;;;;;;;25.02;15.18;;;;;;;-1.42;92.29;101035.78;4992336;28;20069;-77
2021/12/03 02:13:50;;;;;;;24.60;15.80;;;;;;;-1.41;92.31;101036.63;5002979;28;20053;-77
2021/12/03 02:16:18;;;;;;;22.88;14.77;;;;;;;-1.40;91.88;101028.97;5001776;28;20032;-79
2021/12/03 02:18:44;;;;;;;25.33;16.48;;;;;;;-1.39;91.89;101024.75;5005914;28;20033;-79
2021/12/03 02:21:11;;;;;;;30.70;17.58;;;;;;;-1.34;91.94;101028.34;5004311;28;20434;-78
2021/12/03 02:23:37;;;;;;;22.95;15.68;;;;;;;-1.32;92.15;101042.16;5001909;28;20056;-81
2021/12/03 02:26:03;;;;;;;27.52;17.05;;;;;;;-1.27;92.62;101039.75;4983979;28;20054;-78
2021/12/03 02:28:36;;;;;;;28.25;17.63;;;;;;;-1.21;92.18;101034.84;4970980;28;20034;-77
2021/12/03 02:31:04;;;;;;;31.02;20.40;;;;;;;-1.17;92.21;101041.00;5007453;28;20034;-77
2021/12/03 02:33:32;;;;;;;35.13;22.25;;;;;;;-1.11;92.27;101041.25;4987657;28;20084;-79
2021/12/03 02:36:05;;;;;;;36.50;23.17;;;;;;;-1.08;92.55;101029.41;4991997;28;20026;-76
2021/12/03 02:38:33;;;;;;;45.13;26.08;;;;;;;-1.01;92.29;101048.50;5002812;28;20513;-78
2021/12/03 02:40:59;;;;;;;43.55;26.95;;;;;;;-0.99;92.27;101043.41;4974082;28;20123;-77
2021/12/03 02:43:26;;;;;;;55.42;27.15;;;;;;;-0.95;92.63;101037.56;4991092;28;20430;-77
2021/12/03 02:45:52;;;;;;;59.38;29.20;;;;;;;-0.91;92.57;101034.28;5008666;28;20117;-77
2021/12/03 02:48:22;;;;;;;57.75;31.48;;;;;;;-0.90;92.26;101026.63;5004692;28;20050;-76
2021/12/03 02:50:48;;;;;;;61.30;31.10;;;;;;;-0.86;92.28;101022.50;5005250;28;20035;-76
2021/12/03 02:53:14;;;;;;;61.28;29.45;;;;;;;-0.82;92.30;101024.38;5003887;28;20126;-76
2021/12/03 02:55:40;;;;;;;62.53;31.77;;;;;;;-0.79;92.47;101023.56;4984657;28;20085;-75
2021/12/03 02:58:16;;;;;;;56.67;29.40;;;;;;;-0.76;92.66;101024.59;4989262;28;20030;-75
2021/12/03 03:00:46;;;;;;;67.28;33.55;;;;;;;-0.72;92.17;101025.56;5006313;28;20038;-75
2021/12/03 03:03:12;;;;;;;66.43;31.77;;;;;;;-0.67;92.26;101038.63;4984467;28;20065;-75
2021/12/03 03:05:38;;;;;;;65.53;32.28;;;;;;;-0.65;92.36;101031.81;4991479;28;20128;-74
2021/12/03 03:08:04;;;;;;;59.90;31.95;;;;;;;-0.62;92.47;101026.78;5006109;28;20065;-74
2021/12/03 03:10:40;;;;;;;70.28;35.03;;;;;;;-0.60;92.51;101025.16;4978753;28;20044;-74
2021/12/03 03:13:08;;;;;;;60.20;31.13;;;;;;;-0.57;92.44;101020.13;4991452;28;20035;-74
2021/12/03 03:15:37;;;;;;;54.30;30.65;;;;;;;-0.54;92.02;101015.94;5004016;28;20048;-75
2021/12/03 03:18:14;;;;;;;62.55;32.65;;;;;;;-0.53;92.34;101011.69;5003065;28;20038;-74
2021/12/03 03:20:42;;;;;;;50.22;29.00;;;;;;;-0.51;92.36;101002.31;5008134;28;20211;-74
2021/12/03 03:23:12;;;;;;;57.05;31.70;;;;;;;-0.49;92.35;101010.09;4992108;28;20046;-73
2021/12/03 03:25:38;;;;;;;55.80;28.13;;;;;;;-0.46;92.27;101011.09;5009894;28;20048;-74
2021/12/03 03:28:04;;;;;;;58.08;29.35;;;;;;;-0.44;91.90;101013.72;4993571;28;20042;-73
2021/12/03 03:30:31;;;;;;;42.72;27.35;;;;;;;-0.42;92.35;101017.22;4989195;28;20038;-72
2021/12/03 03:32:57;;;;;;;46.63;26.92;;;;;;;-0.41;92.47;101003.53;5010596;28;20030;-73
2021/12/03 03:35:26;;;;;;;51.70;26.08;;;;;;;-0.40;92.38;101005.28;5007514;28;20061;-73
2021/12/03 03:37:52;;;;;;;44.70;25.27;;;;;;;-0.38;92.13;101006.19;4987118;28;20057;-73
2021/12/03 03:40:19;;;;;;;44.45;26.42;;;;;;;-0.37;92.11;101016.56;4994101;28;20042;-72
2021/12/03 03:42:45;;;;;;;43.55;25.13;;;;;;;-0.33;91.94;101025.28;5006572;28;20034;-73
2021/12/03 03:45:16;;;;;;;41.47;26.75;;;;;;;-0.35;92.03;101027.75;4977218;28;20100;-72
2021/12/03 03:47:45;;;;;;;44.78;24.42;;;;;;;-0.32;91.85;101015.84;5005318;28;20060;-73
2021/12/03 03:50:14;;;;;;;41.00;22.67;;;;;;;-0.31;91.81;101023.63;4988216;28;20050;-72
2021/12/03 03:52:47;;;;;;;47.92;24.80;;;;;;;-0.29;91.81;101021.09;5010290;28;20061;-72
2021/12/03 03:55:17;;;;;;;44.10;24.02;;;;;;;-0.29;92.17;101010.78;4988020;28;20137;-73
2021/12/03 03:57:44;;;;;;;48.00;23.63;;;;;;;-0.26;91.71;101008.31;4972957;28;20038;-73
2021/12/03 04:00:14;;;;;;;54.08;27.05;;;;;;;-0.25;91.71;101002.34;5007896;28;20037;-74
2021/12/03 04:02:41;;;;;;;48.22;27.05;;;;;;;-0.26;91.91;101000.59;5009320;28;20034;-73
2021/12/03 04:05:07;;;;;;;56.30;28.40;;;;;;;-0.25;91.79;100989.47;4983037;28;20052;-73
2021/12/03 04:07:33;;;;;;;54.80;28.23;;;;;;;-0.24;91.97;100998.97;5005184;28;20026;-72
2021/12/03 04:09:59;;;;;;;55.17;28.45;;;;;;;-0.23;92.05;101000.69;4980764;28;20038;-73
2021/12/03 04:12:27;;;;;;;50.70;26.98;;;;;;;-0.21;91.89;100992.22;4991159;28;20352;-73
2021/12/03 04:14:53;;;;;;;58.10;28.02;;;;;;;-0.20;91.70;100985.38;5007943;28;20034;-74
2021/12/03 04:17:19;;;;;;;50.97;29.58;;;;;;;-0.19;91.56;100984.53;5009903;28;20113;-74
2021/12/03 04:19:46;;;;;;;60.95;32.10;;;;;;;-0.19;92.07;100977.69;4977288;28;20057;-74
2021/12/03 04:22:17;;;;;;;57.67;28.98;;;;;;;-0.15;91.76;100983.81;5007897;28;20421;-74
2021/12/03 04:24:43;;;;;;;64.00;30.92;;;;;;;-0.15;91.54;100988.97;5007397;28;20045;-74
2021/12/03 04:27:13;;;;;;;62.20;31.42;;;;;;;-0.13;91.75;100992.50;5009171;28;20033;-75
2021/12/03 04:29:47;;;;;;;57.40;29.98;;;;;;;-0.11;91.71;100990.84;4975579;28;20398;-75
2021/12/03 04:32:14;;;;;;;69.25;32.03;;;;;;;-0.11;91.73;100990.84;4973068;28;20037;-75
2021/12/03 04:34:40;;;;;;;57.47;30.83;;;;;;;-0.08;91.78;100990.94;5000692;28;20064;-75
2021/12/03 04:37:06;;;;;;;63.65;29.27;;;;;;;-0.08;91.68;100985.78;4988065;28;20060;-74
2021/12/03 04:39:32;;;;;;;51.80;28.45;;;;;;;-0.07;91.51;100991.78;4971760;28;20572;-74
2021/12/03 04:41:57;;;;;;;67.28;28.63;;;;;;;-0.05;91.79;100990.16;4982681;28;20034;-74
2021/12/03 04:44:25;;;;;;;50.15;27.17;;;;;;;-0.03;91.52;100989.41;4992963;28;20077;-73
2021/12/03 04:46:51;;;;;;;49.22;26.88;;;;;;;-0.02;91.71;100985.97;4974828;28;20081;-73
2021/12/03 04:49:16;;;;;;;53.00;26.63;;;;;;;-0.01;92.05;100995.47;5024903;28;20156;-73
2021/12/03 04:51:43;;;;;;;49.03;26.80;;;;;;;0.02;91.47;100988.69;4977404;28;20142;-73
2021/12/03 04:54:08;;;;;;;48.78;25.70;;;;;;;0.04;91.66;100995.63;5009951;28;20033;-73
2021/12/03 04:56:37;;;;;;;49.10;25.05;;;;;;;0.05;91.79;100992.22;4979165;28;20030;-73
2021/12/03 04:59:04;;;;;;;49.80;25.63;;;;;;;0.11;91.92;100994.13;4994737;28;20041;-73
2021/12/03 05:01:30;;;;;;;49.25;25.52;;;;;;;0.10;91.96;100989.78;4997487;28;20048;-73
2021/12/03 05:03:58;;;;;;;58.25;26.55;;;;;;;0.11;91.56;100997.56;5027440;28;20316;-73
2021/12/03 05:06:41;;;;;;;65.53;25.73;;;;;;;0.13;91.78;100979.56;4989649;28;20079;-73
2021/12/03 05:09:08;;;;;;;45.83;27.75;;;;;;;0.15;91.73;100972.78;5002492;28;20564;-73
2021/12/03 05:11:34;;;;;;;45.10;25.90;;;;;;;0.15;91.76;100968.50;4971746;28;20033;-74
2021/12/03 05:13:59;;;;;;;46.90;25.30;;;;;;;0.15;91.65;100965.94;4990198;28;20117;-73
2021/12/03 05:16:25;;;;;;;42.55;25.52;;;;;;;0.15;91.39;100976.22;4972268;28;20030;-73
2021/12/03 05:18:50;;;;;;;38.13;23.80;;;;;;;0.16;91.50;100964.25;4978205;28;20076;-74
2021/12/03 05:21:16;;;;;;;51.35;26.30;;;;;;;0.14;91.21;100958.16;4979553;28;20673;-73
2021/12/03 05:23:42;;;;;;;60.85;28.35;;;;;;;0.14;91.22;100953.88;4996444;28;20103;-72
2021/12/03 05:26:07;;;;;;;50.20;27.65;;;;;;;0.14;91.42;100965.88;5011951;28;20107;-73
2021/12/03 05:28:33;;;;;;;40.42;24.05;;;;;;;0.14;91.36;100960.72;4980997;28;20135;-76
2021/12/03 05:30:58;;;;;;;43.42;24.38;;;;;;;0.13;91.02;100956.38;4990760;28;20048;-76
2021/12/03 05:33:24;;;;;;;43.58;23.70;;;;;;;0.14;91.50;100968.47;4995297;28;20065;-76
2021/12/03 05:35:49;;;;;;;41.35;23.98;;;;;;;0.15;91.22;100963.34;4991464;28;20390;-72
2021/12/03 05:38:15;;;;;;;39.13;21.05;;;;;;;0.16;91.29;100961.66;5004820;28;20108;-73
2021/12/03 05:40:42;;;;;;;29.95;20.55;;;;;;;0.20;91.24;100965.19;5010603;28;20048;-73
2021/12/03 05:43:08;;;;;;;35.15;19.08;;;;;;;0.20;91.08;100975.50;5012053;28;20043;-74
2021/12/03 05:45:35;;;;;;;38.35;20.38;;;;;;;0.20;91.08;100965.19;5012562;28;20845;-73
2021/12/03 05:48:01;;;;;;;26.60;16.13;;;;;;;0.20;91.17;100968.66;5003581;28;20050;-73
2021/12/03 05:50:29;;;;;;;28.48;16.73;;;;;;;0.23;91.03;100970.44;5011234;28;21161;-77
2021/12/03 05:52:57;;;;;;;26.83;14.55;;;;;;;0.25;90.80;100971.41;5002357;28;20398;-77
2021/12/03 05:55:26;;;;;;;35.30;15.10;;;;;;;0.24;90.75;100970.50;5004024;28;20029;-76
2021/12/03 05:57:52;;;;;;;29.17;15.45;;;;;;;0.24;90.95;100962.75;4991247;28;20402;-76
2021/12/03 06:00:31;;;;;;;24.95;14.15;;;;;;;0.25;90.89;100974.84;5007677;28;20047;-76
2021/12/03 06:02:57;;;;;;;35.30;15.35;;;;;;;0.22;90.72;100969.59;5007539;28;20030;-75
2021/12/03 06:05:28;;;;;;;21.05;13.85;;;;;;;0.22;90.55;100967.00;4986531;28;20025;-75
2021/12/03 06:07:54;;;;;;;;;;;;;;;0.24;90.65;100973.06;5003056;28;20061;-76
2021/12/03 06:10:20;;;;;;;29.40;12.52;;;;;;;0.21;90.61;100969.53;5001992;28;19963;-73
2021/12/03 06:12:47;;;;;;;30.02;11.70;;;;;;;0.21;90.42;100967.81;4985349;28;20505;-75
2021/12/03 06:15:16;;;;;;;22.90;11.43;;;;;;;0.21;90.51;100974.69;5010377;28;20397;-75
2021/12/03 06:17:41;;;;;;;24.85;10.15;;;;;;;0.19;90.75;100969.50;5008242;28;20025;-78
2021/12/03 06:20:13;;;;;;;21.08;11.50;;;;;;;0.19;90.42;100959.19;5005707;28;20486;-77
2021/12/03 06:22:40;;;;;;;18.23;10.88;;;;;;;0.19;90.28;100966.91;4996369;28;20025;-80
2021/12/03 06:25:09;;;;;;;20.42;12.18;;;;;;;0.20;90.28;100960.06;5003647;28;20129;-80
2021/12/03 06:27:34;;;;;;;23.58;11.10;;;;;;;0.17;90.05;100958.25;5005517;28;20034;-80
2021/12/03 06:30:19;;;;;;;17.30;9.93;;;;;;;0.20;90.25;100957.47;4987038;28;20038;-81
2021/12/03 06:32:45;;;;;;;18.80;9.90;;;;;;;0.21;89.94;100961.81;5001345;28;20140;-80
2021/12/03 06:35:13;;;;;;;20.38;9.30;;;;;;;0.22;89.68;100958.41;4977709;28;20034;-78
2021/12/03 06:37:39;;;;;;;14.68;9.25;;;;;;;0.20;89.72;100948.03;5010201;28;20115;-77
2021/12/03 06:40:11;;;;;;;18.15;9.85;;;;;;;0.24;89.88;100961.91;4987959;28;20054;-78
2021/12/03 06:42:37;;;;;;;25.95;9.70;;;;;;;0.23;89.38;100955.00;5007220;28;20148;-74
2021/12/03 06:45:06;;;;;;;20.45;9.70;;;;;;;0.22;89.47;100955.84;4983465;28;20491;-74
2021/12/03 06:47:31;;;;;;;16.45;10.48;;;;;;;0.21;89.36;100949.78;4981389;28;20156;-76
2021/12/03 06:49:57;;;;;;;14.20;8.55;;;;;;;0.20;89.11;100947.16;4986367;28;20121;-76
2021/12/03 06:52:24;;;;;;;20.05;9.02;;;;;;;0.20;88.77;100942.00;4973926;28;20126;-77
2021/12/03 06:54:57;;;;;;;21.42;8.93;;;;;;;0.18;88.42;100949.69;4958261;28;20157;-75
2021/12/03 06:57:22;;;;;;;24.75;9.30;;;;;;;0.19;88.44;100954.03;4976492;28;20062;-74
2021/12/03 06:59:48;;;;;;;21.02;7.85;;;;;;;0.19;88.01;100954.03;4974149;28;20066;-75
2021/12/03 07:02:14;;;;;;;18.83;9.35;;;;;;;0.18;87.69;100957.44;4988003;28;20038;-77
2021/12/03 07:04:40;;;;;;;15.90;8.15;;;;;;;0.19;87.48;100950.56;4990652;28;20071;-76
2021/12/03 07:07:08;;;;;;;23.08;8.93;;;;;;;0.15;87.31;100947.03;4974507;28;20031;-75
2021/12/03 07:09:35;;;;;;;17.92;7.93;;;;;;;0.14;87.36;100950.41;4958655;28;20115;-76
2021/12/03 07:12:00;;;;;;;10.52;7.28;;;;;;;0.15;87.08;100952.19;4976035;28;20394;-75
2021/12/03 07:14:25;;;;;;;15.60;7.57;;;;;;;0.13;87.04;100948.66;4990103;28;20031;-76
2021/12/03 07:16:52;;;;;;;13.75;7.03;;;;;;;0.13;86.76;100939.25;4977184;28;20092;-75
2021/12/03 07:19:17;;;;;;;28.63;10.32;;;;;;;0.13;86.71;100938.34;4993011;28;20033;-76
2021/12/03 07:21:43;;;;;;;14.07;7.63;;;;;;;0.13;86.23;100944.41;4993332;28;20395;-75
2021/12/03 07:24:08;;;;;;;15.10;7.75;;;;;;;0.13;86.43;100935.78;4976645;28;20068;-75
2021/12/03 07:26:34;;;;;;;17.48;8.65;;;;;;;0.13;86.46;100940.94;4993549;28;20030;-78
2021/12/03 07:29:00;;;;;;;18.92;7.47;;;;;;;0.12;86.36;100931.47;5009731;28;20106;-75
2021/12/03 07:31:26;;;;;;;25.77;8.38;;;;;;;0.11;86.44;100920.25;5010073;28;20113;-77
2021/12/03 07:33:54;;;;;;;21.90;7.95;;;;;;;0.11;86.29;100916.81;4991975;28;20035;-74
2021/12/03 07:36:20;;;;;;;15.77;6.93;;;;;;;0.12;86.05;100918.59;4993413;28;20514;-78
2021/12/03 07:38:45;;;;;;;25.23;7.47;;;;;;;0.12;86.40;100926.31;4993023;28;20026;-76
2021/12/03 07:41:11;;;;;;;18.40;8.40;;;;;;;0.13;86.20;100928.03;4988662;28;20127;-76
2021/12/03 07:43:36;;;;;;;15.55;6.93;;;;;;;0.13;86.40;100935.78;4989813;28;20027;-76
2021/12/03 07:46:06;;;;;;;15.38;7.55;;;;;;;0.15;85.82;100936.72;4973428;28;20027;-76
2021/12/03 07:48:32;;;;;;;19.83;7.70;;;;;;;0.17;86.08;100928.22;5013401;28;20085;-76
2021/12/03 07:50:58;;;;;;;23.45;7.70;;;;;;;0.21;85.81;100936.91;4995212;28;20517;-77
2021/12/03 07:53:26;;;;;;;20.17;7.13;;;;;;;0.22;85.70;100930.94;4995521;28;20034;-76
2021/12/03 07:55:52;;;;;;;11.98;5.30;;;;;;;0.23;85.84;100935.25;5013492;28;20120;-76
2021/12/03 07:58:19;;;;;;;11.50;6.35;;;;;;;0.28;86.07;100935.41;5009939;28;20022;-77
2021/12/03 08:00:46;;;;;;;20.70;6.55;;;;;;;0.28;85.66;100927.66;4979578;28;20041;-76
2021/12/03 08:03:12;;;;;;;19.98;6.70;;;;;;;0.31;85.82;100935.50;4975408;28;20038;-76
2021/12/03 08:05:39;;;;;;;16.63;7.03;;;;;;;0.33;86.02;100938.97;5012225;28;20485;-77
2021/12/03 08:08:05;;;;;;;24.48;7.57;;;;;;;0.34;85.69;100936.47;4995251;28;20537;-76
2021/12/03 08:10:34;;;;;;;21.63;8.05;;;;;;;0.37;86.10;100933.09;4979026;28;20032;-76
2021/12/03 08:13:00;;;;;;;19.30;6.60;;;;;;;0.39;85.83;100926.31;4995161;28;20029;-76
2021/12/03 08:15:26;;;;;;;17.52;6.55;;;;;;;0.41;85.50;100926.34;4979641;28;20088;-76
2021/12/03 08:17:51;;;;;;;17.65;6.97;;;;;;;0.43;86.04;100924.69;4994569;28;20060;-76
2021/12/03 08:20:18;;;;;;;23.15;7.47;;;;;;;0.45;86.04;100921.34;4978088;28;20410;-75
2021/12/03 08:22:43;;;;;;;24.33;6.70;;;;;;;0.45;85.60;100931.66;5011837;28;20474;-75
2021/12/03 08:25:10;;;;;;;19.42;5.63;;;;;;;0.50;85.37;100924.03;4995270;28;20072;-77
2021/12/03 08:27:36;;;;;;;18.50;6.68;;;;;;;0.52;85.29;100927.56;4994554;28;20038;-78
2021/12/03 08:30:04;;;;;;;24.95;7.15;;;;;;;0.54;85.54;100920.72;5011044;28;20130;-76
2021/12/03 08:32:30;;;;;;;24.63;6.35;;;;;;;0.58;85.81;100922.59;4988651;28;20091;-77
2021/12/03 08:34:58;;;;;;;21.65;7.15;;;;;;;0.61;85.37;100917.50;4989430;28;20030;-76
2021/12/03 08:37:24;;;;;;;14.57;5.43;;;;;;;0.66;85.42;100920.22;5010524;28;20033;-76
2021/12/03 08:39:49;;;;;;;14.95;6.63;;;;;;;0.68;85.45;100908.25;4994922;28;20175;-76
2021/12/03 08:42:17;;;;;;;18.25;6.93;;;;;;;0.74;84.97;100915.31;5010390;28;20014;-77
2021/12/03 08:44:42;;;;;;;17.17;6.00;;;;;;;0.78;84.63;100914.56;4976174;28;20062;-76
2021/12/03 08:47:08;;;;;;;20.55;6.35;;;;;;;0.81;84.42;100904.34;4977240;28;20093;-77
2021/12/03 08:49:44;;;;;;;13.70;5.15;;;;;;;0.83;84.35;100897.50;4992294;28;20117;-78
2021/12/03 08:52:28;;;;;;;14.40;5.07;;;;;;;0.86;84.62;100902.75;5011210;28;20120;-78
2021/12/03 08:54:57;;;;;;;18.67;5.88;;;;;;;0.90;84.02;100908.88;4985930;28;20038;-77
2021/12/03 08:57:32;;;;;;;12.93;6.15;;;;;;;0.94;84.57;100910.72;4991534;28;20038;-76
2021/12/03 09:00:03;;;;;;;17.17;5.63;;;;;;;0.94;84.11;100909.00;5010585;28;20038;-77
2021/12/03 09:02:29;;;;;;;16.55;5.30;;;;;;;0.97;84.05;100906.50;5010314;28;20095;-77
2021/12/03 09:04:54;;;;;;;13.50;4.95;;;;;;;0.99;83.79;100898.81;4994584;28;20022;-76
2021/12/03 09:07:20;;;;;;;12.95;5.28;;;;;;;0.99;83.66;100894.56;5009858;28;20021;-76
2021/12/03 09:09:46;;;;;;;21.02;6.45;;;;;;;1.01;84.06;100892.00;5005033;28;20014;-76
2021/12/03 09:12:12;;;;;;;16.02;5.10;;;;;;;1.06;83.34;100899.88;4982726;28;20088;-76
2021/12/03 09:14:48;;;;;;;17.77;5.90;;;;;;;1.08;82.80;100898.19;5000388;28;20044;-75
2021/12/03 09:25:18;;;;;;;28.95;7.63;;;;;;;1.32;83.11;100892.84;4992586;28;20023;-76
2021/12/03 09:27:43;;;;;;;22.08;7.60;;;;;;;1.34;82.86;100883.44;5008404;28;20092;-76
2021/12/03 09:30:14;;;;;;;23.30;7.15;;;;;;;1.38;82.69;100886.13;4975779;28;20466;-76
2021/12/03 09:32:41;;;;;;;22.27;5.88;;;;;;;1.42;83.31;100886.22;4993554;28;20426;-76
2021/12/03 09:35:09;;;;;;;25.40;7.00;;;;;;;1.42;82.54;100888.78;4993619;28;20120;-76
2021/12/03 09:37:35;;;;;;;14.68;5.93;;;;;;;1.43;82.96;100885.38;4978045;28;20098;-76
2021/12/03 09:40:06;;;;;;;9.85;5.35;;;;;;;1.43;82.45;100903.47;4993884;28;20482;-77
2021/12/03 09:42:35;;;;;;;;;;;;;;;1.53;82.72;100905.44;4994341;28;20485;-76
2021/12/03 09:45:01;;;;;;;15.88;6.00;;;;;;;1.46;82.79;100901.81;4992800;28;19918;-76
2021/12/03 09:47:27;;;;;;;17.88;6.75;;;;;;;1.46;82.29;100895.78;5018518;28;20046;-76
2021/12/03 09:49:56;;;;;;;9.27;5.47;;;;;;;1.48;82.87;100888.94;4988044;28;20543;-76
2021/12/03 09:52:39;;;;;;;18.10;5.05;;;;;;;1.51;83.64;100889.06;5012944;28;20582;-75
2021/12/03 09:55:10;;;;;;;16.73;6.57;;;;;;;1.50;82.77;100874.38;5013212;28;20026;-78
2021/12/03 09:57:41;;;;;;;21.85;6.70;;;;;;;1.53;82.93;100871.88;4995376;28;20033;-75
2021/12/03 10:18:59;;;;;;;10.25;4.82;;;;;;;1.68;83.75;100837.78;5023064;28;20038;-76
2021/12/03 10:49:58;;;;;;;18.02;6.47;;;;;;;1.89;83.65;100762.50;5015035;28;20052;-80
2021/12/03 11:14:48;;;;;;;14.85;6.57;;;;;;;2.28;83.10;100728.00;5032087;28;20086;-77
2021/12/03 11:20:01;;;;;;;18.40;6.03;;;;;;;2.39;83.55;100725.63;5002188;28;20109;-77
2021/12/03 12:01:45;;;;;;;;;;;;;;;2.98;80.44;100641.31;5022097;28;20030;-77
2021/12/03 12:14:57;;;;;;;10.43;5.40;;;;;;;3.32;78.80;100606.44;4994906;28;20479;-76
2021/12/03 12:23:44;;;;;;;11.80;5.53;;;;;;;3.40;78.52;100589.25;5031219;28;20474;-76
2021/12/03 14:35:55;;;;;;;11.07;3.65;;;;;;;2.76;82.30;100454.63;5005297;28;20037;-76
2021/12/03 14:43:43;;;;;;;6.95;3.90;;;;;;;2.75;82.08;100453.75;4988953;28;20527;-77
2021/12/03 14:49:07;;;;;;;8.45;5.25;;;;;;;2.75;82.28;100461.50;4983216;28;20057;-79
2021/12/03 14:57:50;;;;;;;9.93;5.20;;;;;;;2.78;82.12;100471.91;5001384;28;20513;-81
2021/12/03 15:06:27;;;;;;;3.95;3.50;;;;;;;2.75;83.53;100463.25;4964757;28;20042;-81
2021/12/03 15:09:00;;;;;;;11.43;4.47;;;;;;;2.75;83.55;100468.41;4988147;28;20042;-83
2021/12/03 15:25:28;;;;;;;9.77;4.90;;;;;;;2.70;85.22;100455.41;5011615;28;20034;-80
2021/12/03 15:37:11;;;;;;;9.65;4.25;;;;;;;2.66;85.99;100432.94;5015682;28;20560;-81
2021/12/03 15:39:40;;;;;;;12.00;4.90;;;;;;;2.67;86.34;100431.22;4975088;28;20042;-80
2021/12/03 15:58:27;;;;;;;6.22;3.72;;;;;;;2.58;88.07;100419.00;4996227;28;20184;-81
2021/12/03 16:08:51;;;;;;;6.28;3.95;;;;;;;2.54;89.08;100404.28;4989606;28;20130;-82
2021/12/03 16:11:36;;;;;;;4.28;3.85;;;;;;;2.52;88.50;100408.59;4994363;28;20038;-79
2021/12/03 16:17:30;;;;;;;3.90;3.60;;;;;;;2.52;89.71;100393.94;4990216;28;20053;-80
2021/12/03 16:46:56;;;;;;;5.38;4.38;;;;;;;2.49;89.76;100367.16;4997730;28;20121;-81
2021/12/03 16:51:54;;;;;;;4.22;3.67;;;;;;;2.50;90.15;100374.06;4994990;28;20069;-80
2021/12/03 16:54:28;;;;;;;6.20;4.57;;;;;;;2.47;90.30;100364.56;4978961;28;20031;-81
2021/12/03 16:56:55;;;;;;;4.30;3.90;;;;;;;2.48;90.71;100360.25;4978832;28;20072;-80
2021/12/03 16:59:24;;;;;;;5.13;4.38;;;;;;;2.47;90.86;100358.50;4962369;28;20050;-81
2021/12/03 17:01:59;;;;;;;4.20;3.90;;;;;;;2.47;90.74;100355.91;4992932;28;20121;-79
2021/12/03 17:56:18;;;;;;;5.45;4.95;;;;;;;2.31;92.22;100275.53;5007683;28;20378;-78
2021/12/03 17:58:49;;;;;;;5.28;4.70;;;;;;;2.31;92.56;100275.53;5002649;28;20038;-76
2021/12/03 18:01:20;;;;;;;4.93;4.53;;;;;;;2.32;92.76;100260.91;4984169;28;20061;-77
2021/12/03 18:51:56;;;;;;;40.88;28.42;;;;;;;2.50;90.93;100243.03;5010205;28;20044;-78
2021/12/03 18:54:33;;;;;;;24.40;16.98;;;;;;;2.53;90.74;100248.25;4975427;28;20447;-79
2021/12/03 18:57:07;;;;;;;8.13;7.32;;;;;;;2.56;90.61;100250.00;4980822;28;20121;-75
2021/12/03 18:59:37;;;;;;;48.58;33.85;;;;;;;2.56;90.37;100243.09;4985858;28;20038;-74
2021/12/03 19:02:06;;;;;;;13.55;12.15;;;;;;;2.59;90.12;100252.63;4981270;28;20069;-76
2021/12/03 19:04:50;;;;;;;6.60;6.00;;;;;;;2.59;90.03;100248.31;4972195;28;20046;-74
2021/12/03 19:07:24;;;;;;;10.52;7.90;;;;;;;2.62;90.35;100246.63;5003269;28;20118;-74
2021/12/03 19:09:53;;;;;;;6.18;5.68;;;;;;;2.62;89.69;100242.31;4969236;28;20434;-75